Time;durP1;ratioP1;P1;durP2;ratioP2;P2;SDS_P1;SDS_P2;PMS_P1;PMS_P2;Temp;Humidity;BMP_temperature;BMP_pressure;BME280_temperature;BME280_humidity;BME280_pressure;Samples;Min_cycle;Max_cycle;Signal;HPM_P1;HPM_P2
2023/08/17 00:00:09;;;;;;;7.43;2.58;;;;;;;;;;5110700;28;20044;-58
2023/08/17 00:02:36;;;;;;;10.68;2.78;;;;;;;;;;5083692;28;20483;-58
2023/08/17 00:05:02;;;;;;;8.98;2.60;;;;;;;;;;5086868;28;20051;-57
2023/08/17 00:07:28;;;;;;;5.43;2.10;;;;;;;;;;5095486;28;20058;-57
2023/08/17 00:09:54;;;;;;;6.75;2.20;;;;;;;;;;5088506;28;20423;-57
2023/08/17 00:12:21;;;;;;;9.70;2.50;;;;;;;;;;5092906;28;20043;-58
2023/08/17 00:14:47;;;;;;;7.55;2.47;;;;;;;;;;5100222;28;20070;-58
2023/08/17 00:17:13;;;;;;;6.65;2.28;;;;;;;;;;5103319;28;20051;-58
2023/08/17 00:19:39;;;;;;;6.25;2.55;;;;;;;;;;5089792;28;20044;-57
2023/08/17 00:22:06;;;;;;;8.90;2.47;;;;;;;;;;5109759;28;20110;-59
2023/08/17 00:24:32;;;;;;;8.70;2.75;;;;;;;;;;5107798;28;20040;-58
2023/08/17 00:26:58;;;;;;;6.13;2.40;;;;;;;;;;5097921;27;20051;-59
2023/08/17 00:29:24;;;;;;;5.53;2.92;;;;;;;;;;5101580;28;20543;-58
2023/08/17 00:31:52;;;;;;;9.40;2.78;;;;;;;;;;5093391;28;20052;-58
2023/08/17 00:34:18;;;;;;;8.43;2.92;;;;;;;;;;5091986;28;20474;-57
2023/08/17 00:36:44;;;;;;;9.18;2.58;;;;;;;;;;5096001;28;20127;-58
2023/08/17 00:39:10;;;;;;;8.75;3.15;;;;;;;;;;5105099;28;20036;-58
2023/08/17 00:41:37;;;;;;;8.25;2.65;;;;;;;;;;5103088;28;20040;-58
2023/08/17 00:44:03;;;;;;;5.40;2.35;;;;;;;;;;5097791;28;20054;-58
2023/08/17 00:46:30;;;;;;;8.40;3.10;;;;;;;;;;5096373;28;20039;-58
2023/08/17 00:48:58;;;;;;;6.85;3.08;;;;;;;;;;5092472;28;20054;-58
2023/08/17 00:51:24;;;;;;;4.65;2.17;;;;;;;;;;5102526;28;20131;-58
2023/08/17 00:53:55;;;;;;;7.32;2.53;;;;;;;;;;5096949;28;20059;-58
2023/08/17 00:56:21;;;;;;;7.07;2.88;;;;;;;;;;5098244;28;20098;-58
2023/08/17 00:58:49;;;;;;;6.43;2.45;;;;;;;;;;5092014;28;20119;-58
2023/08/17 01:01:15;;;;;;;11.10;2.72;;;;;;;;;;5085825;28;20072;-58
2023/08/17 01:03:42;;;;;;;8.52;2.20;;;;;;;;;;5099825;28;20100;-61
2023/08/17 01:06:09;;;;;;;4.22;2.05;;;;;;;;;;5100995;28;20054;-58
2023/08/17 01:08:37;;;;;;;6.43;2.55;;;;;;;;;;5091203;28;20167;-58
2023/08/17 01:11:14;;;;;;;6.40;2.50;;;;;;;;;;5095810;28;20042;-58
2023/08/17 01:13:43;;;;;;;6.03;2.75;;;;;;;;;;5095748;28;20067;-58
2023/08/17 01:16:12;;;;;;;6.53;2.75;;;;;;;;;;5097633;28;20067;-58
2023/08/17 01:18:40;;;;;;;4.78;2.40;;;;;;;;;;5093198;28;20504;-58
2023/08/17 01:21:08;;;;;;;5.93;2.90;;;;;;;;;;5095333;28;20032;-58
2023/08/17 01:23:35;;;;;;;10.23;2.72;;;;;;;;;;5087079;28;20044;-58
2023/08/17 01:26:01;;;;;;;5.25;2.67;;;;;;;;;;5097469;28;20118;-58
2023/08/17 01:28:28;;;;;;;6.22;2.85;;;;;;;;;;5093275;28;20127;-58
2023/08/17 01:30:58;;;;;;;5.30;2.80;;;;;;;;;;5084669;28;20377;-58
2023/08/17 01:33:41;;;;;;;6.85;2.53;;;;;;;;;;5096348;28;20072;-58
2023/08/17 01:36:25;;;;;;;6.78;2.92;;;;;;;;;;5101677;28;20095;-58
2023/08/17 01:38:52;;;;;;;6.85;2.65;;;;;;;;;;5096817;28;20079;-59
2023/08/17 01:41:20;;;;;;;7.90;2.90;;;;;;;;;;5109919;28;20124;-58
2023/08/17 01:43:47;;;;;;;4.97;2.50;;;;;;;;;;5101301;28;20045;-58
2023/08/17 01:46:16;;;;;;;5.10;2.58;;;;;;;;;;5091777;28;20050;-58
2023/08/17 01:48:43;;;;;;;4.95;2.80;;;;;;;;;;5096246;28;20105;-58
2023/08/17 01:51:10;;;;;;;4.57;2.70;;;;;;;;;;5096126;28;20407;-58
2023/08/17 01:53:36;;;;;;;7.05;2.67;;;;;;;;;;5100660;28;20432;-58
2023/08/17 01:56:03;;;;;;;6.15;2.40;;;;;;;;;;5108693;28;20375;-58
2023/08/17 01:58:29;;;;;;;7.20;3.30;;;;;;;;;;5099648;28;20046;-58
2023/08/17 02:00:55;;;;;;;7.30;2.40;;;;;;;;;;5102911;28;20172;-58
2023/08/17 02:03:21;;;;;;;8.82;3.17;;;;;;;;;;5093560;28;20095;-58
2023/08/17 02:05:47;;;;;;;8.30;3.55;;;;;;;;;;5111199;28;20046;-58
2023/08/17 02:08:14;;;;;;;7.57;3.22;;;;;;;;;;5105102;28;20044;-58
2023/08/17 02:10:40;;;;;;;9.80;3.50;;;;;;;;;;5096978;28;20032;-58
2023/08/17 02:13:06;;;;;;;6.60;3.15;;;;;;;;;;5110512;28;20070;-58
2023/08/17 02:15:32;;;;;;;7.63;3.10;;;;;;;;;;5103441;28;20405;-58
2023/08/17 02:18:01;;;;;;;8.55;3.70;;;;;;;;;;5108147;28;20039;-58
2023/08/17 02:20:27;;;;;;;9.05;3.00;;;;;;;;;;5109203;28;20131;-58
2023/08/17 02:22:53;;;;;;;6.80;2.95;;;;;;;;;;5110119;28;20054;-58
2023/08/17 02:25:20;;;;;;;5.60;2.40;;;;;;;;;;5097598;28;20047;-58
2023/08/17 02:27:46;;;;;;;6.25;2.78;;;;;;;;;;5110798;28;20043;-58
2023/08/17 02:30:13;;;;;;;8.30;2.83;;;;;;;;;;5098714;28;20051;-58
2023/08/17 02:32:39;;;;;;;8.02;2.50;;;;;;;;;;5113291;28;20126;-58
2023/08/17 02:35:05;;;;;;;7.18;2.78;;;;;;;;;;5110123;28;20040;-58
2023/08/17 02:37:32;;;;;;;5.50;2.67;;;;;;;;;;5113217;28;20122;-58
2023/08/17 02:39:58;;;;;;;6.63;2.75;;;;;;;;;;5108101;28;20035;-58
2023/08/17 02:42:24;;;;;;;6.03;2.53;;;;;;;;;;5101778;28;20085;-58
2023/08/17 02:44:50;;;;;;;5.25;3.05;;;;;;;;;;5092762;28;20440;-58
2023/08/17 02:47:16;;;;;;;6.18;3.03;;;;;;;;;;5107491;28;20135;-58
2023/08/17 02:49:43;;;;;;;6.72;3.22;;;;;;;;;;5094882;28;20059;-58
2023/08/17 02:52:09;;;;;;;7.53;3.40;;;;;;;;;;5098601;28;20084;-58
2023/08/17 02:54:35;;;;;;;8.80;3.45;;;;;;;;;;5101565;28;20123;-58
2023/08/17 02:57:01;;;;;;;7.03;2.88;;;;;;;;;;5092916;28;20043;-58
2023/08/17 02:59:27;;;;;;;7.93;3.28;;;;;;;;;;5095166;28;20043;-58
2023/08/17 03:01:54;;;;;;;12.43;4.55;;;;;;;;;;5103484;28;20503;-58
2023/08/17 03:04:20;;;;;;;7.85;3.90;;;;;;;;;;5104906;28;20040;-58
2023/08/17 03:06:47;;;;;;;9.07;3.92;;;;;;;;;;5105273;28;20483;-58
2023/08/17 03:09:13;;;;;;;9.70;3.95;;;;;;;;;;5104299;28;20070;-58
2023/08/17 03:11:39;;;;;;;13.40;4.60;;;;;;;;;;5101345;28;20083;-58
2023/08/17 03:14:05;;;;;;;9.57;4.10;;;;;;;;;;5100666;28;20128;-58
2023/08/17 03:16:31;;;;;;;7.97;3.70;;;;;;;;;;5107584;28;20043;-58
2023/08/17 03:18:57;;;;;;;10.55;3.75;;;;;;;;;;5099884;28;20054;-58
2023/08/17 03:21:24;;;;;;;11.20;4.40;;;;;;;;;;5108122;28;20065;-58
2023/08/17 03:23:50;;;;;;;8.57;3.65;;;;;;;;;;5103145;28;20047;-58
2023/08/17 03:26:16;;;;;;;11.05;4.15;;;;;;;;;;5093651;28;20507;-58
2023/08/17 03:28:42;;;;;;;11.52;3.80;;;;;;;;;;5107652;28;20407;-58
2023/08/17 03:31:09;;;;;;;9.35;3.72;;;;;;;;;;5100839;28;20032;-58
2023/08/17 03:33:36;;;;;;;9.43;3.28;;;;;;;;;;5113619;28;20088;-58
2023/08/17 03:36:02;;;;;;;10.82;3.40;;;;;;;;;;5093700;28;20441;-58
2023/08/17 03:38:28;;;;;;;7.85;3.13;;;;;;;;;;5096201;28;20036;-58
2023/08/17 03:40:55;;;;;;;9.25;3.08;;;;;;;;;;5104457;28;20032;-58
2023/08/17 03:43:21;;;;;;;6.72;2.55;;;;;;;;;;5113285;27;20044;-58
2023/08/17 03:45:47;;;;;;;6.97;2.70;;;;;;;;;;5107395;28;20352;-58
2023/08/17 03:48:13;;;;;;;8.10;2.58;;;;;;;;;;5109515;28;20050;-58
2023/08/17 03:50:40;;;;;;;6.65;2.30;;;;;;;;;;5109928;28;20514;-58
2023/08/17 03:53:06;;;;;;;7.28;2.72;;;;;;;;;;5096454;28;20096;-58
2023/08/17 03:55:32;;;;;;;8.15;2.30;;;;;;;;;;5096678;28;20488;-58
2023/08/17 03:57:58;;;;;;;10.43;3.33;;;;;;;;;;5108684;28;20050;-58
2023/08/17 04:00:24;;;;;;;8.45;2.42;;;;;;;;;;5105910;28;20154;-59
2023/08/17 04:02:51;;;;;;;6.35;2.60;;;;;;;;;;5092387;28;20455;-58
2023/08/17 04:05:17;;;;;;;10.75;2.88;;;;;;;;;;5112311;28;20402;-58
2023/08/17 04:07:43;;;;;;;6.28;2.63;;;;;;;;;;5110867;28;20047;-58
2023/08/17 04:10:10;;;;;;;7.95;2.70;;;;;;;;;;5110805;28;20203;-58
2023/08/17 04:12:36;;;;;;;4.00;1.98;;;;;;;;;;5113311;28;20111;-58
2023/08/17 04:15:02;;;;;;;8.63;2.47;;;;;;;;;;5111872;28;20491;-58
2023/08/17 04:17:28;;;;;;;7.25;2.25;;;;;;;;;;5101231;28;20040;-58
2023/08/17 04:19:54;;;;;;;4.57;2.25;;;;;;;;;;5104084;28;20495;-58
2023/08/17 04:22:20;;;;;;;5.22;2.20;;;;;;;;;;5110362;28;20373;-59
2023/08/17 04:24:47;;;;;;;6.88;2.10;;;;;;;;;;5108448;28;20120;-58
2023/08/17 04:27:14;;;;;;;5.82;2.25;;;;;;;;;;5112485;28;20487;-58
2023/08/17 04:29:40;;;;;;;11.70;2.75;;;;;;;;;;5101547;28;20048;-58
2023/08/17 04:32:06;;;;;;;8.00;2.40;;;;;;;;;;5098993;28;20032;-58
2023/08/17 04:34:36;;;;;;;6.00;1.98;;;;;;;;;;5105321;28;20027;-58
2023/08/17 04:37:02;;;;;;;6.35;1.85;;;;;;;;;;5108242;28;20495;-58
2023/08/17 04:39:28;;;;;;;10.68;2.45;;;;;;;;;;5102640;28;20032;-58
2023/08/17 04:41:55;;;;;;;4.80;1.98;;;;;;;;;;5106363;28;20469;-58
2023/08/17 04:44:21;;;;;;;6.88;1.88;;;;;;;;;;5104504;27;20039;-58
2023/08/17 04:46:47;;;;;;;6.95;1.75;;;;;;;;;;5092246;28;20123;-58
2023/08/17 04:49:13;;;;;;;3.80;1.40;;;;;;;;;;5105942;28;20115;-57
2023/08/17 04:51:39;;;;;;;6.60;1.98;;;;;;;;;;5099431;28;20052;-58
2023/08/17 04:54:05;;;;;;;6.45;1.60;;;;;;;;;;5102470;28;20519;-58
2023/08/17 04:56:32;;;;;;;5.10;1.70;;;;;;;;;;5103600;28;20039;-58
2023/08/17 04:58:58;;;;;;;6.15;1.60;;;;;;;;;;5103775;28;20503;-59
2023/08/17 05:01:24;;;;;;;9.32;1.60;;;;;;;;;;5089749;27;20036;-59
2023/08/17 05:03:51;;;;;;;5.93;1.80;;;;;;;;;;5096468;28;20096;-59
2023/08/17 05:06:17;;;;;;;5.63;1.33;;;;;;;;;;5103392;28;20043;-59
2023/08/17 05:08:44;;;;;;;6.38;1.58;;;;;;;;;;5111444;28;20035;-59
2023/08/17 05:11:10;;;;;;;9.93;1.60;;;;;;;;;;5104404;28;20539;-59
2023/08/17 05:13:36;;;;;;;6.35;1.88;;;;;;;;;;5098282;28;20035;-59
2023/08/17 05:16:02;;;;;;;7.72;1.73;;;;;;;;;;5103746;28;20043;-59
2023/08/17 05:18:29;;;;;;;4.80;1.33;;;;;;;;;;5093649;27;20044;-59
2023/08/17 05:20:55;;;;;;;8.65;1.58;;;;;;;;;;5102766;28;20046;-59
2023/08/17 05:23:21;;;;;;;6.22;1.35;;;;;;;;;;5108049;28;20125;-59
2023/08/17 05:25:47;;;;;;;4.18;1.33;;;;;;;;;;5103680;28;20040;-59
2023/08/17 05:28:14;;;;;;;4.93;1.50;;;;;;;;;;5096267;28;20043;-59
2023/08/17 05:30:40;;;;;;;3.30;1.20;;;;;;;;;;5088904;28;20039;-59
2023/08/17 05:33:06;;;;;;;6.40;1.40;;;;;;;;;;5089586;28;20040;-60
2023/08/17 05:35:33;;;;;;;6.03;1.75;;;;;;;;;;5106074;28;20456;-59
2023/08/17 05:37:59;;;;;;;4.97;1.52;;;;;;;;;;5093356;28;20043;-59
2023/08/17 05:40:26;;;;;;;6.18;1.40;;;;;;;;;;5086269;28;20054;-59
2023/08/17 05:42:52;;;;;;;3.78;1.35;;;;;;;;;;5094253;28;20557;-59
2023/08/17 05:45:18;;;;;;;3.72;1.40;;;;;;;;;;5089611;28;20028;-59
2023/08/17 05:47:45;;;;;;;4.05;1.40;;;;;;;;;;5097089;28;20043;-59
2023/08/17 05:50:11;;;;;;;4.20;1.27;;;;;;;;;;5093095;28;20051;-59
2023/08/17 05:52:37;;;;;;;6.97;1.52;;;;;;;;;;5089609;28;20040;-59
2023/08/17 05:55:04;;;;;;;6.70;1.30;;;;;;;;;;5095032;28;20140;-59
2023/08/17 05:57:30;;;;;;;3.63;1.40;;;;;;;;;;5096020;28;20040;-59
2023/08/17 05:59:56;;;;;;;6.10;1.60;;;;;;;;;;5093978;28;20103;-59
2023/08/17 06:02:22;;;;;;;5.85;1.20;;;;;;;;;;5094178;28;20035;-59
2023/08/17 06:04:49;;;;;;;4.68;1.23;;;;;;;;;;5094461;28;20131;-59
2023/08/17 06:07:15;;;;;;;5.75;1.08;;;;;;;;;;5097344;28;20036;-59
2023/08/17 06:09:41;;;;;;;5.95;1.67;;;;;;;;;;5094321;28;20092;-59
2023/08/17 06:12:07;;;;;;;8.95;2.22;;;;;;;;;;5097731;28;20443;-59
2023/08/17 06:14:34;;;;;;;4.45;1.30;;;;;;;;;;5085726;28;20044;-59
2023/08/17 06:17:00;;;;;;;4.72;1.27;;;;;;;;;;5094300;28;20119;-59
2023/08/17 06:19:26;;;;;;;6.57;1.30;;;;;;;;;;5087625;28;20051;-59
2023/08/17 06:21:53;;;;;;;5.70;1.70;;;;;;;;;;5098669;28;20040;-59
2023/08/17 06:24:19;;;;;;;5.07;1.50;;;;;;;;;;5092232;28;20039;-59
2023/08/17 06:26:45;;;;;;;5.47;1.48;;;;;;;;;;5099780;28;20131;-59
2023/08/17 06:29:12;;;;;;;6.60;1.50;;;;;;;;;;5089468;28;20047;-59
2023/08/17 06:31:38;;;;;;;5.68;1.60;;;;;;;;;;5091923;28;20058;-59
2023/08/17 06:34:04;;;;;;;6.47;1.42;;;;;;;;;;5091000;28;20036;-59
2023/08/17 06:36:32;;;;;;;4.93;1.50;;;;;;;;;;5093454;28;20130;-59
2023/08/17 06:38:58;;;;;;;4.47;1.50;;;;;;;;;;5092024;28;20090;-59
2023/08/17 06:41:25;;;;;;;6.70;1.90;;;;;;;;;;5093400;28;20129;-59
2023/08/17 06:43:51;;;;;;;6.32;1.17;;;;;;;;;;5092055;28;20136;-59
2023/08/17 06:46:17;;;;;;;4.50;1.30;;;;;;;;;;5091764;28;20044;-59
2023/08/17 06:48:44;;;;;;;5.65;1.42;;;;;;;;;;5090238;28;20563;-58
2023/08/17 06:51:10;;;;;;;4.47;1.23;;;;;;;;;;5082782;28;20146;-58
2023/08/17 06:53:36;;;;;;;5.65;1.17;;;;;;;;;;5090976;28;20084;-59
2023/08/17 06:56:03;;;;;;;4.03;0.98;;;;;;;;;;5090782;28;20051;-59
2023/08/17 06:58:29;;;;;;;9.30;1.60;;;;;;;;;;5111658;28;20439;-59
2023/08/17 07:00:55;;;;;;;3.78;1.15;;;;;;;;;;5106600;28;20085;-58
2023/08/17 07:03:22;;;;;;;5.15;1.30;;;;;;;;;;5090589;28;20481;-59
2023/08/17 07:05:48;;;;;;;5.65;1.10;;;;;;;;;;5094134;28;20356;-59
2023/08/17 07:08:14;;;;;;;4.45;1.20;;;;;;;;;;5096245;28;20051;-59
2023/08/17 07:10:41;;;;;;;6.05;1.25;;;;;;;;;;5085409;28;20040;-59
2023/08/17 07:13:07;;;;;;;3.53;0.95;;;;;;;;;;5092443;28;20448;-59
2023/08/17 07:15:33;;;;;;;5.57;1.20;;;;;;;;;;5093399;28;20421;-59
2023/08/17 07:18:00;;;;;;;3.58;0.90;;;;;;;;;;5090365;28;20379;-59
2023/08/17 07:20:26;;;;;;;5.93;1.27;;;;;;;;;;5096083;28;20036;-59
2023/08/17 07:22:52;;;;;;;5.53;1.08;;;;;;;;;;5091483;28;20048;-59
2023/08/17 07:25:18;;;;;;;8.85;1.42;;;;;;;;;;5090879;28;20089;-59
2023/08/17 07:27:44;;;;;;;5.93;1.10;;;;;;;;;;5099580;28;20075;-59
2023/08/17 07:30:11;;;;;;;4.45;1.20;;;;;;;;;;5091088;28;20128;-59
2023/08/17 07:32:37;;;;;;;3.72;1.08;;;;;;;;;;5098866;28;20050;-59
2023/08/17 07:35:03;;;;;;;6.88;1.40;;;;;;;;;;5091318;28;20513;-59
2023/08/17 07:37:33;;;;;;;4.28;0.90;;;;;;;;;;5090416;28;20410;-59
2023/08/17 07:39:59;;;;;;;4.47;0.98;;;;;;;;;;5093084;28;20104;-59
2023/08/17 07:42:25;;;;;;;6.22;1.20;;;;;;;;;;5092975;28;20063;-59
2023/08/17 07:44:52;;;;;;;4.40;1.13;;;;;;;;;;5091109;28;20036;-59
2023/08/17 07:47:18;;;;;;;4.35;0.95;;;;;;;;;;5087101;28;20472;-59
2023/08/17 07:49:44;;;;;;;3.78;0.88;;;;;;;;;;5092155;28;20059;-59
2023/08/17 07:52:10;;;;;;;7.05;1.60;;;;;;;;;;5092163;28;20251;-60
2023/08/17 07:54:36;;;;;;;3.97;1.00;;;;;;;;;;5089662;28;20040;-59
2023/08/17 07:57:03;;;;;;;4.78;1.30;;;;;;;;;;5092556;28;20028;-59
2023/08/17 07:59:29;;;;;;;4.07;1.13;;;;;;;;;;5105741;28;20119;-59
2023/08/17 08:01:55;;;;;;;7.10;1.88;;;;;;;;;;5097709;28;20036;-59
2023/08/17 08:04:22;;;;;;;3.33;1.25;;;;;;;;;;5091799;28;20044;-60
2023/08/17 08:06:48;;;;;;;5.82;0.82;;;;;;;;;;5093870;28;20104;-59
2023/08/17 08:09:14;;;;;;;4.10;0.85;;;;;;;;;;5089574;28;20479;-59
2023/08/17 08:11:40;;;;;;;3.00;0.90;;;;;;;;;;5088621;28;20036;-59
2023/08/17 08:14:07;;;;;;;3.47;0.88;;;;;;;;;;5089353;28;20096;-59
2023/08/17 08:16:33;;;;;;;4.45;0.98;;;;;;;;;;5094750;28;20362;-59
2023/08/17 08:18:59;;;;;;;2.33;0.80;;;;;;;;;;5089011;28;20039;-59
2023/08/17 08:21:27;;;;;;;5.68;0.90;;;;;;;;;;5112041;28;20126;-59
2023/08/17 08:23:53;;;;;;;4.93;1.90;;;;;;;;;;5096586;28;20040;-59
2023/08/17 08:26:20;;;;;;;5.57;1.23;;;;;;;;;;5093561;28;20111;-59
2023/08/17 08:28:46;;;;;;;5.22;1.13;;;;;;;;;;5092048;28;20044;-59
2023/08/17 08:31:12;;;;;;;3.45;1.10;;;;;;;;;;5096094;28;20067;-59
2023/08/17 08:33:38;;;;;;;4.25;1.00;;;;;;;;;;5085827;28;20134;-59
2023/08/17 08:36:06;;;;;;;11.27;1.77;;;;;;;;;;5089341;28;20066;-58
2023/08/17 08:38:32;;;;;;;5.13;0.93;;;;;;;;;;5091607;28;20051;-60
2023/08/17 08:40:59;;;;;;;5.18;1.00;;;;;;;;;;5089864;28;20082;-59
2023/08/17 08:43:25;;;;;;;2.97;1.10;;;;;;;;;;5090954;28;20069;-59
2023/08/17 08:45:52;;;;;;;3.70;1.10;;;;;;;;;;5089277;28;20119;-59
2023/08/17 08:48:19;;;;;;;3.70;1.25;;;;;;;;;;5090424;28;20058;-59
2023/08/17 08:50:47;;;;;;;4.93;1.00;;;;;;;;;;5088114;28;20055;-63
2023/08/17 08:53:19;;;;;;;4.95;1.05;;;;;;;;;;5090746;28;20055;-59
2023/08/17 08:55:50;;;;;;;5.40;0.85;;;;;;;;;;5087899;28;20192;-59
2023/08/17 08:58:16;;;;;;;6.72;1.30;;;;;;;;;;5092749;28;20487;-60
2023/08/17 09:00:43;;;;;;;2.72;0.88;;;;;;;;;;5112057;28;20143;-60
2023/08/17 09:03:09;;;;;;;6.50;2.78;;;;;;;;;;5095482;28;20071;-59
2023/08/17 09:05:35;;;;;;;3.75;1.17;;;;;;;;;;5097837;28;20457;-60
2023/08/17 09:08:02;;;;;;;3.25;1.02;;;;;;;;;;5090351;28;20159;-59
2023/08/17 09:10:29;;;;;;;2.30;0.82;;;;;;;;;;5101146;28;20074;-59
2023/08/17 09:12:55;;;;;;;3.38;1.20;;;;;;;;;;5094799;28;20067;-59
2023/08/17 09:15:21;;;;;;;4.88;1.23;;;;;;;;;;5094659;28;20447;-59
2023/08/17 09:17:49;;;;;;;4.63;1.10;;;;;;;;;;5094260;27;20109;-59
2023/08/17 09:20:35;;;;;;;4.20;1.20;;;;;;;;;;5107643;28;20383;-59
2023/08/17 09:23:04;;;;;;;3.40;0.85;;;;;;;;;;5107107;28;20066;-59
2023/08/17 09:25:34;;;;;;;6.53;1.20;;;;;;;;;;5102012;28;20077;-59
2023/08/17 09:28:08;;;;;;;5.68;1.27;;;;;;;;;;5100027;28;20047;-59
2023/08/17 09:30:35;;;;;;;4.80;1.10;;;;;;;;;;5093734;28;20047;-59
2023/08/17 09:33:04;;;;;;;5.35;1.30;;;;;;;;;;5103946;28;20040;-59
2023/08/17 09:35:32;;;;;;;4.30;1.10;;;;;;;;;;5105477;28;20087;-59
2023/08/17 09:37:58;;;;;;;3.90;1.00;;;;;;;;;;5092718;28;20099;-59
2023/08/17 09:40:26;;;;;;;4.82;1.33;;;;;;;;;;5088735;28;20032;-59
2023/08/17 09:42:54;;;;;;;4.63;1.10;;;;;;;;;;5094968;28;20384;-66
2023/08/17 09:45:20;;;;;;;5.38;1.25;;;;;;;;;;5099772;28;20137;-59
2023/08/17 09:47:46;;;;;;;4.88;1.13;;;;;;;;;;5094392;28;20131;-59
2023/08/17 09:50:13;;;;;;;3.15;0.85;;;;;;;;;;5092626;28;20126;-59
2023/08/17 09:52:39;;;;;;;2.80;1.10;;;;;;;;;;5101363;28;20122;-59
2023/08/17 09:55:08;;;;;;;2.60;1.00;;;;;;;;;;5098643;28;20036;-59
2023/08/17 09:57:34;;;;;;;5.63;1.17;;;;;;;;;;5090197;28;20043;-59
2023/08/17 10:00:01;;;;;;;5.20;1.60;;;;;;;;;;5093421;28;20035;-59
2023/08/17 10:02:28;;;;;;;4.38;1.00;;;;;;;;;;5099861;28;20043;-59
2023/08/17 10:04:58;;;;;;;4.07;1.10;;;;;;;;;;5104603;28;20048;-59
2023/08/17 10:07:28;;;;;;;7.15;1.60;;;;;;;;;;5085411;28;20551;-59
2023/08/17 10:09:57;;;;;;;6.45;0.98;;;;;;;;;;5085060;28;20098;-60
2023/08/17 10:12:27;;;;;;;5.95;1.17;;;;;;;;;;5086614;28;20043;-59
2023/08/17 10:15:04;;;;;;;9.88;1.40;;;;;;;;;;5082716;28;20037;-59
2023/08/17 10:17:35;;;;;;;6.78;1.10;;;;;;;;;;5086871;28;20121;-59
2023/08/17 10:20:02;;;;;;;7.65;2.03;;;;;;;;;;5088721;28;20487;-59
2023/08/17 10:22:29;;;;;;;5.82;1.23;;;;;;;;;;5088383;28;20048;-59
2023/08/17 10:24:58;;;;;;;4.93;1.23;;;;;;;;;;5089251;28;20488;-59
2023/08/17 10:27:25;;;;;;;5.90;1.45;;;;;;;;;;5088100;28;20041;-60
2023/08/17 10:29:51;;;;;;;5.82;1.10;;;;;;;;;;5088656;28;20071;-60
2023/08/17 10:32:18;;;;;;;5.85;1.13;;;;;;;;;;5090406;28;20055;-59
2023/08/17 10:34:45;;;;;;;6.78;1.25;;;;;;;;;;5092763;28;20093;-60
2023/08/17 10:37:12;;;;;;;5.20;1.13;;;;;;;;;;5084186;28;20048;-59
2023/08/17 10:39:45;;;;;;;4.25;1.20;;;;;;;;;;5088665;28;20044;-60
2023/08/17 10:42:11;;;;;;;4.18;0.98;;;;;;;;;;5093703;28;20082;-59
2023/08/17 10:44:41;;;;;;;3.78;0.93;;;;;;;;;;5091625;28;20135;-60
2023/08/17 10:47:33;;;;;;;3.85;0.90;;;;;;;;;;5088461;28;20091;-60
2023/08/17 10:50:02;;;;;;;10.43;1.88;;;;;;;;;;5088151;28;20060;-60
2023/08/17 10:52:31;;;;;;;4.50;1.30;;;;;;;;;;5087854;28;20340;-61
2023/08/17 10:55:00;;;;;;;5.28;1.55;;;;;;;;;;5092154;28;20125;-59
2023/08/17 10:57:32;;;;;;;5.93;1.30;;;;;;;;;;5095478;28;20052;-60
2023/08/17 11:00:14;;;;;;;9.30;1.90;;;;;;;;;;5090599;28;20082;-60
2023/08/17 11:02:40;;;;;;;6.07;1.23;;;;;;;;;;5092157;28;20562;-59
2023/08/17 11:05:07;;;;;;;8.20;1.90;;;;;;;;;;5092886;28;20119;-59
2023/08/17 11:07:43;;;;;;;4.43;1.50;;;;;;;;;;5092748;28;20093;-59
2023/08/17 11:10:31;;;;;;;6.40;1.40;;;;;;;;;;5091031;28;20103;-60
2023/08/17 11:13:01;;;;;;;5.22;1.17;;;;;;;;;;5090716;28;20361;-59
2023/08/17 11:15:44;;;;;;;4.63;1.05;;;;;;;;;;5093800;28;20079;-59
2023/08/17 11:18:11;;;;;;;4.70;1.25;;;;;;;;;;5089847;28;20044;-67
2023/08/17 11:20:38;;;;;;;6.43;1.48;;;;;;;;;;5107703;28;20051;-60
2023/08/17 11:23:05;;;;;;;5.57;1.10;;;;;;;;;;5091193;28;20044;-60
2023/08/17 11:25:34;;;;;;;3.13;0.90;;;;;;;;;;5087472;28;20044;-59
2023/08/17 11:28:03;;;;;;;4.82;1.50;;;;;;;;;;5091831;28;20121;-59
2023/08/17 11:30:30;;;;;;;3.10;1.08;;;;;;;;;;5090218;28;20036;-59
2023/08/17 11:32:57;;;;;;;6.28;1.25;;;;;;;;;;5092136;28;20130;-59
2023/08/17 11:35:24;;;;;;;4.15;1.30;;;;;;;;;;5093190;28;20405;-59
2023/08/17 11:37:50;;;;;;;4.45;1.70;;;;;;;;;;5092405;28;20055;-59
2023/08/17 11:40:16;;;;;;;4.55;1.17;;;;;;;;;;5089102;28;20389;-59
2023/08/17 11:42:43;;;;;;;9.05;1.40;;;;;;;;;;5090187;28;20171;-59
2023/08/17 11:45:10;;;;;;;4.75;1.45;;;;;;;;;;5088370;28;20040;-59
2023/08/17 11:47:40;;;;;;;5.35;1.50;;;;;;;;;;5094535;28;20052;-59
2023/08/17 11:50:07;;;;;;;6.22;1.33;;;;;;;;;;5090585;28;20058;-58
2023/08/17 11:52:33;;;;;;;4.43;1.30;;;;;;;;;;5091535;28;20040;-58
2023/08/17 11:55:00;;;;;;;6.43;1.95;;;;;;;;;;5091179;28;20048;-58
2023/08/17 11:57:26;;;;;;;4.75;1.23;;;;;;;;;;5101132;28;20059;-58
2023/08/17 11:59:54;;;;;;;5.90;1.50;;;;;;;;;;5091533;28;20084;-58
2023/08/17 12:02:22;;;;;;;10.45;1.52;;;;;;;;;;5091872;28;20058;-58
2023/08/17 12:04:48;;;;;;;5.22;1.67;;;;;;;;;;5094243;28;20040;-58
2023/08/17 12:07:16;;;;;;;7.97;1.70;;;;;;;;;;5094105;28;20065;-58
2023/08/17 12:09:44;;;;;;;6.72;1.48;;;;;;;;;;5097453;28;20075;-58
2023/08/17 12:12:10;;;;;;;7.38;1.52;;;;;;;;;;5092153;28;20376;-58
2023/08/17 12:14:37;;;;;;;4.43;1.45;;;;;;;;;;5094353;28;21793;-58
2023/08/17 12:17:03;;;;;;;7.43;1.48;;;;;;;;;;5102123;28;20393;-58
2023/08/17 12:19:30;;;;;;;8.55;2.42;;;;;;;;;;5094365;28;20040;-58
2023/08/17 12:21:57;;;;;;;5.55;1.58;;;;;;;;;;5093895;28;20048;-58
2023/08/17 12:24:27;;;;;;;7.22;1.80;;;;;;;;;;5090843;28;20067;-59
2023/08/17 12:26:57;;;;;;;5.20;1.30;;;;;;;;;;5089299;28;20036;-59
2023/08/17 12:29:23;;;;;;;5.53;1.55;;;;;;;;;;5087063;28;20046;-59
2023/08/17 12:31:49;;;;;;;3.95;1.23;;;;;;;;;;5089552;28;20442;-59
2023/08/17 12:34:15;;;;;;;5.68;1.65;;;;;;;;;;5110429;28;20483;-59
2023/08/17 12:36:43;;;;;;;7.20;1.63;;;;;;;;;;5101687;28;20031;-59
2023/08/17 12:39:10;;;;;;;4.65;1.70;;;;;;;;;;5112163;28;20044;-60
2023/08/17 12:41:36;;;;;;;6.00;1.55;;;;;;;;;;5102411;27;20514;-65
2023/08/17 12:44:02;;;;;;;7.68;1.65;;;;;;;;;;5104431;28;20496;-59
2023/08/17 12:46:32;;;;;;;5.65;1.63;;;;;;;;;;5085496;28;20047;-60
2023/08/17 12:48:59;;;;;;;6.78;1.90;;;;;;;;;;5111029;28;20146;-59
2023/08/17 12:51:25;;;;;;;3.85;1.55;;;;;;;;;;5096635;28;20119;-59
2023/08/17 12:53:51;;;;;;;7.05;1.92;;;;;;;;;;5103558;28;20082;-59
2023/08/17 12:56:17;;;;;;;8.90;2.13;;;;;;;;;;5095202;28;20118;-59
2023/08/17 12:58:44;;;;;;;10.38;1.77;;;;;;;;;;5098207;28;20044;-59
2023/08/17 13:01:10;;;;;;;10.73;2.60;;;;;;;;;;5100976;28;20151;-59
2023/08/17 13:03:36;;;;;;;5.35;1.70;;;;;;;;;;5090906;28;20472;-59
2023/08/17 13:06:02;;;;;;;6.72;1.80;;;;;;;;;;5087158;28;20126;-59
2023/08/17 13:08:29;;;;;;;5.35;1.50;;;;;;;;;;5096752;28;20474;-60
2023/08/17 13:10:55;;;;;;;6.93;1.63;;;;;;;;;;5089242;28;20036;-59
2023/08/17 13:13:21;;;;;;;7.15;2.05;;;;;;;;;;5090608;28;20051;-59
2023/08/17 13:15:47;;;;;;;8.07;2.70;;;;;;;;;;5086705;28;20044;-59
2023/08/17 13:18:13;;;;;;;4.18;1.48;;;;;;;;;;5094556;28;20058;-59
2023/08/17 13:20:40;;;;;;;5.63;1.40;;;;;;;;;;5092287;28;20083;-59
2023/08/17 13:23:06;;;;;;;10.70;2.00;;;;;;;;;;5086106;28;20055;-59
2023/08/17 13:25:33;;;;;;;4.43;1.50;;;;;;;;;;5091521;28;20518;-59
2023/08/17 13:27:59;;;;;;;5.15;1.90;;;;;;;;;;5089007;28;20127;-59
2023/08/17 13:30:25;;;;;;;7.63;1.75;;;;;;;;;;5090170;28;20751;-59
2023/08/17 13:32:51;;;;;;;5.68;1.63;;;;;;;;;;5096265;28;20051;-59
2023/08/17 13:35:17;;;;;;;5.53;1.30;;;;;;;;;;5087656;28;20036;-59
2023/08/17 13:37:44;;;;;;;5.00;1.73;;;;;;;;;;5088813;28;20051;-59
2023/08/17 13:40:10;;;;;;;8.30;1.65;;;;;;;;;;5090771;28;20040;-59
2023/08/17 13:42:36;;;;;;;5.95;1.92;;;;;;;;;;5091639;28;20124;-59
2023/08/17 13:45:03;;;;;;;5.93;1.70;;;;;;;;;;5088183;28;20101;-59
2023/08/17 13:47:29;;;;;;;6.45;1.77;;;;;;;;;;5089455;28;20120;-59
2023/08/17 13:49:56;;;;;;;8.20;1.92;;;;;;;;;;5089257;28;20076;-59
2023/08/17 13:52:23;;;;;;;5.93;1.75;;;;;;;;;;5086886;28;20040;-59
2023/08/17 13:54:49;;;;;;;8.35;1.70;;;;;;;;;;5088879;28;20122;-59
2023/08/17 13:57:15;;;;;;;5.50;1.48;;;;;;;;;;5092464;28;20085;-59
2023/08/17 13:59:41;;;;;;;7.30;2.03;;;;;;;;;;5089100;28;20063;-59
2023/08/17 14:02:08;;;;;;;5.50;1.65;;;;;;;;;;5091998;28;20099;-59
2023/08/17 14:04:34;;;;;;;4.45;1.70;;;;;;;;;;5096709;28;20108;-60
2023/08/17 14:07:01;;;;;;;5.18;1.90;;;;;;;;;;5090905;28;20073;-59
2023/08/17 14:09:27;;;;;;;6.38;1.63;;;;;;;;;;5094879;28;20555;-59
2023/08/17 14:11:53;;;;;;;4.60;1.63;;;;;;;;;;5086452;28;20043;-59
2023/08/17 14:14:19;;;;;;;3.83;1.45;;;;;;;;;;5087921;28;20047;-59
2023/08/17 14:16:45;;;;;;;8.60;1.88;;;;;;;;;;5089776;28;20622;-66
2023/08/17 14:19:12;;;;;;;7.93;1.63;;;;;;;;;;5084190;28;20040;-59
2023/08/17 14:21:38;;;;;;;4.80;1.73;;;;;;;;;;5087638;28;20079;-59
2023/08/17 14:24:06;;;;;;;8.07;2.08;;;;;;;;;;5089568;28;20044;-59
2023/08/17 14:26:32;;;;;;;6.82;1.35;;;;;;;;;;5088444;28;20059;-59
2023/08/17 14:28:59;;;;;;;6.15;1.40;;;;;;;;;;5093416;28;20126;-59
2023/08/17 14:31:25;;;;;;;8.77;1.80;;;;;;;;;;5091456;28;20084;-59
2023/08/17 14:33:51;;;;;;;5.82;1.50;;;;;;;;;;5097011;28;20115;-59
2023/08/17 14:36:17;;;;;;;4.75;1.38;;;;;;;;;;5093682;28;20052;-59
2023/08/17 14:38:43;;;;;;;8.48;1.70;;;;;;;;;;5092962;28;20388;-59
2023/08/17 14:41:09;;;;;;;6.55;1.58;;;;;;;;;;5091846;28;20043;-59